Time;durP1;ratioP1;P1;durP2;ratioP2;P2;SDS_P1;SDS_P2;PMS_P1;PMS_P2;Temp;Humidity;BMP_temperature;BMP_pressure;BME280_temperature;BME280_humidity;BME280_pressure;Samples;Min_cycle;Max_cycle;Signal;HPM_P1;HPM_P2
2022/07/07 00:02:17;;;;;;;3.47;2.65;;;16.60;74.00;;;;;;4975966;28;20059;-37
2022/07/07 00:04:43;;;;;;;2.47;2.28;;;16.20;85.30;;;;;;4972281;28;20039;-38
2022/07/07 00:07:09;;;;;;;2.28;2.10;;;16.10;87.40;;;;;;4968725;28;20033;-36
2022/07/07 00:09:35;;;;;;;3.92;2.40;;;15.90;84.80;;;;;;4975294;28;20110;-36
2022/07/07 00:12:00;;;;;;;2.85;2.53;;;15.80;86.20;;;;;;4976709;28;20030;-39
2022/07/07 00:14:26;;;;;;;10.13;2.30;;;15.90;84.60;;;;;;4976007;28;20029;-39
2022/07/07 00:16:52;;;;;;;2.42;2.10;;;15.90;83.40;;;;;;4975879;28;20117;-37
2022/07/07 00:19:17;;;;;;;4.35;2.10;;;15.90;84.50;;;;;;4976081;28;20085;-39
2022/07/07 00:21:43;;;;;;;3.08;2.30;;;15.90;85.60;;;;;;4976091;28;20049;-39
2022/07/07 00:24:08;;;;;;;4.75;2.25;;;15.90;85.30;;;;;;4974622;28;20033;-40
2022/07/07 00:26:34;;;;;;;2.10;2.00;;;15.90;84.80;;;;;;4973252;28;20035;-35
2022/07/07 00:29:00;;;;;;;2.88;2.60;;;15.80;86.30;;;;;;4974421;28;20058;-36
2022/07/07 00:31:26;;;;;;;2.40;2.20;;;15.80;90.00;;;;;;4974720;28;20082;-39
2022/07/07 00:33:52;;;;;;;2.20;2.00;;;15.70;90.60;;;;;;4974714;28;20030;-39
2022/07/07 00:36:18;;;;;;;2.50;2.30;;;15.70;90.30;;;;;;4974922;28;20038;-40
2022/07/07 00:38:44;;;;;;;3.67;2.53;;;15.70;90.40;;;;;;4975007;28;20030;-39
2022/07/07 00:41:09;;;;;;;2.60;2.40;;;15.70;90.90;;;;;;4973464;28;20026;-36
2022/07/07 00:43:40;;;;;;;2.47;2.28;;;15.70;90.40;;;;;;4973732;28;20039;-40
2022/07/07 00:46:07;;;;;;;2.92;2.13;;;15.70;90.80;;;;;;4973509;28;20026;-36
2022/07/07 00:48:35;;;;;;;3.28;2.10;;;15.70;90.50;;;;;;4975172;28;20113;-39
2022/07/07 00:51:03;;;;;;;3.38;2.22;;;15.70;90.30;;;;;;4974638;28;20058;-39
2022/07/07 00:53:29;;;;;;;2.55;2.28;;;15.70;90.10;;;;;;4981200;28;20026;-38
2022/07/07 00:55:54;;;;;;;2.20;2.03;;;15.60;89.50;;;;;;4979104;28;20469;-39
2022/07/07 00:58:20;;;;;;;3.45;2.35;;;15.70;88.60;;;;;;4984208;28;20034;-37
2022/07/07 01:00:46;;;;;;;2.60;2.40;;;15.70;90.40;;;;;;4977086;28;20035;-33
2022/07/07 01:03:12;;;;;;;2.30;2.20;;;15.60;90.00;;;;;;4975393;28;20081;-33
2022/07/07 01:05:40;;;;;;;3.08;2.30;;;15.40;92.30;;;;;;4973527;28;20107;-33
2022/07/07 01:08:08;;;;;;;3.17;2.78;;;15.40;91.80;;;;;;4979460;28;20030;-33
2022/07/07 01:10:34;;;;;;;3.85;2.70;;;15.20;92.70;;;;;;4973523;28;20049;-33
2022/07/07 01:13:04;;;;;;;2.90;2.60;;;15.20;91.40;;;;;;4978765;28;20093;-33
2022/07/07 01:15:30;;;;;;;3.15;2.40;;;15.10;92.30;;;;;;4973066;28;20503;-32
2022/07/07 01:17:56;;;;;;;2.55;2.35;;;15.00;93.40;;;;;;4977166;28;20026;-32
2022/07/07 01:20:22;;;;;;;2.75;2.55;;;15.00;93.60;;;;;;4973653;28;20094;-33
2022/07/07 01:22:53;;;;;;;4.45;2.47;;;15.00;92.80;;;;;;4975376;28;20054;-33
2022/07/07 01:25:18;;;;;;;2.55;2.35;;;15.00;92.80;;;;;;4977187;28;20552;-32
2022/07/07 01:27:44;;;;;;;3.00;2.80;;;14.90;92.20;;;;;;4973114;28;20082;-33
2022/07/07 01:30:11;;;;;;;3.08;2.58;;;14.90;92.70;;;;;;4975877;28;20114;-35
2022/07/07 01:32:36;;;;;;;2.78;2.38;;;14.80;92.80;;;;;;4972509;28;20035;-32
2022/07/07 01:35:03;;;;;;;3.72;2.38;;;14.80;92.80;;;;;;4975974;28;20041;-34
2022/07/07 01:37:29;;;;;;;3.78;2.35;;;14.90;92.50;;;;;;4972652;28;20134;-33
2022/07/07 01:39:55;;;;;;;2.90;2.60;;;14.90;93.50;;;;;;4974766;28;20121;-33
2022/07/07 01:42:21;;;;;;;2.92;2.63;;;14.90;93.10;;;;;;4972484;28;20039;-35
2022/07/07 01:44:51;;;;;;;2.83;2.63;;;14.90;93.30;;;;;;4975411;28;20038;-33
2022/07/07 01:47:19;;;;;;;5.80;2.60;;;14.90;93.00;;;;;;4973065;28;20105;-33
2022/07/07 01:49:45;;;;;;;3.05;2.70;;;14.90;92.60;;;;;;4973374;28;20034;-33
2022/07/07 01:52:10;;;;;;;4.25;2.50;;;14.90;92.50;;;;;;4970621;28;20094;-35
2022/07/07 01:54:37;;;;;;;2.63;2.42;;;15.00;92.10;;;;;;4973509;28;20114;-32
2022/07/07 01:57:03;;;;;;;4.60;3.35;;;14.90;92.10;;;;;;4972829;28;20035;-34
2022/07/07 01:59:29;;;;;;;3.33;2.97;;;14.90;92.40;;;;;;4969478;28;20039;-34
2022/07/07 02:01:55;;;;;;;2.33;2.13;;;14.90;92.20;;;;;;4971855;28;20563;-33
2022/07/07 02:04:21;;;;;;;3.25;2.45;;;14.90;92.10;;;;;;4972679;28;20030;-33
2022/07/07 02:06:46;;;;;;;2.53;2.20;;;14.90;92.10;;;;;;4972687;28;20030;-32
2022/07/07 02:09:12;;;;;;;3.47;2.33;;;14.80;92.60;;;;;;4972764;28;20027;-33
2022/07/07 02:11:38;;;;;;;3.17;2.08;;;14.70;93.40;;;;;;4971706;28;20507;-33
2022/07/07 02:14:04;;;;;;;4.03;2.70;;;14.70;93.20;;;;;;4973908;28;20068;-33
2022/07/07 02:16:31;;;;;;;3.20;2.90;;;14.60;93.20;;;;;;4972045;28;20043;-33
2022/07/07 02:18:58;;;;;;;3.13;2.45;;;14.60;93.30;;;;;;4973692;28;20026;-33
2022/07/07 02:21:25;;;;;;;2.45;2.20;;;14.60;93.20;;;;;;4972073;28;20039;-34
2022/07/07 02:23:53;;;;;;;3.70;2.60;;;14.70;93.20;;;;;;4973029;28;20030;-36
2022/07/07 02:26:19;;;;;;;4.85;3.03;;;14.70;92.80;;;;;;4971987;28;20169;-33
2022/07/07 02:28:45;;;;;;;3.42;2.75;;;14.70;93.30;;;;;;4972716;28;20038;-33
2022/07/07 02:31:11;;;;;;;3.67;2.75;;;14.60;93.30;;;;;;4971413;28;20049;-35
2022/07/07 02:33:37;;;;;;;2.45;2.25;;;14.60;93.70;;;;;;4972268;28;20027;-33
2022/07/07 02:36:04;;;;;;;3.08;2.78;;;14.60;94.10;;;;;;4972256;28;20047;-34
2022/07/07 02:38:30;;;;;;;3.28;2.80;;;14.50;93.70;;;;;;4972438;28;20507;-36
2022/07/07 02:40:56;;;;;;;3.08;2.50;;;14.50;93.50;;;;;;4969569;28;20019;-33
2022/07/07 02:43:22;;;;;;;3.28;2.80;;;14.50;93.70;;;;;;4968939;28;20033;-32
2022/07/07 02:45:49;;;;;;;4.18;2.97;;;14.50;94.10;;;;;;4971846;28;20035;-34
2022/07/07 02:48:16;;;;;;;3.72;2.78;;;14.50;93.50;;;;;;4971181;28;20027;-33
2022/07/07 02:50:42;;;;;;;6.13;2.75;;;14.50;93.60;;;;;;4975148;28;20476;-33
2022/07/07 02:53:10;;;;;;;3.10;2.85;;;14.50;93.30;;;;;;4972102;28;20104;-34
2022/07/07 02:55:36;;;;;;;3.38;2.90;;;14.50;93.00;;;;;;4975057;28;20444;-33
2022/07/07 02:58:03;;;;;;;3.10;2.80;;;14.50;93.20;;;;;;4971510;28;20053;-33
2022/07/07 03:00:29;;;;;;;2.85;2.65;;;14.50;93.60;;;;;;4973777;28;20101;-34
2022/07/07 03:02:55;;;;;;;5.22;2.72;;;14.50;93.60;;;;;;4971803;28;20751;-34
2022/07/07 03:05:24;;;;;;;2.83;2.63;;;14.50;93.60;;;;;;4973702;28;20114;-33
2022/07/07 03:07:50;;;;;;;3.63;2.80;;;14.60;92.60;;;;;;4971701;28;20026;-33
2022/07/07 03:10:15;;;;;;;5.25;2.80;;;14.60;93.40;;;;;;4973666;28;20039;-33
2022/07/07 03:12:41;;;;;;;4.63;2.38;;;14.60;93.00;;;;;;4970980;28;20022;-33
2022/07/07 03:15:08;;;;;;;3.10;2.80;;;14.60;92.50;;;;;;4971884;28;20058;-33
2022/07/07 03:17:34;;;;;;;4.78;2.58;;;14.60;92.40;;;;;;4971449;28;20037;-33
2022/07/07 03:19:59;;;;;;;2.97;2.67;;;14.60;92.90;;;;;;4974416;28;20031;-34
2022/07/07 03:22:25;;;;;;;2.95;2.58;;;14.60;93.00;;;;;;4971164;28;20035;-33
2022/07/07 03:24:51;;;;;;;2.95;2.60;;;14.60;92.60;;;;;;4971606;28;20096;-34
2022/07/07 03:27:16;;;;;;;2.92;2.63;;;14.60;92.60;;;;;;4970677;28;20038;-32
2022/07/07 03:29:42;;;;;;;5.03;2.80;;;14.70;92.60;;;;;;4971257;28;20431;-33
2022/07/07 03:32:08;;;;;;;2.88;2.67;;;14.70;93.50;;;;;;4970911;28;20521;-33
2022/07/07 03:34:34;;;;;;;2.70;2.50;;;14.60;93.10;;;;;;4969254;28;20094;-32
2022/07/07 03:36:59;;;;;;;4.15;2.90;;;14.70;93.70;;;;;;4975596;28;20130;-34
2022/07/07 03:39:25;;;;;;;3.03;2.40;;;14.70;93.50;;;;;;4970983;28;20046;-33
2022/07/07 03:41:50;;;;;;;3.97;3.08;;;14.70;93.60;;;;;;4973938;28;20081;-32
2022/07/07 03:44:16;;;;;;;3.28;2.70;;;14.70;93.40;;;;;;4953820;28;20130;-33
2022/07/07 03:46:42;;;;;;;2.88;2.50;;;14.70;93.60;;;;;;4974533;28;20232;-33
2022/07/07 03:49:07;;;;;;;3.22;2.63;;;14.70;93.40;;;;;;4969316;28;20506;-33
2022/07/07 03:51:33;;;;;;;2.78;2.58;;;14.70;93.50;;;;;;4974399;28;20023;-33
2022/07/07 03:53:59;;;;;;;3.38;2.95;;;14.70;93.40;;;;;;4969037;28;20058;-34
2022/07/07 03:56:25;;;;;;;3.13;2.85;;;14.70;93.40;;;;;;4973676;28;20077;-33
2022/07/07 03:58:50;;;;;;;3.35;2.50;;;14.70;93.50;;;;;;4967353;28;20047;-33
2022/07/07 04:01:16;;;;;;;5.60;2.97;;;14.60;93.40;;;;;;4965397;28;20837;-33
2022/07/07 04:03:42;;;;;;;4.50;2.47;;;14.70;93.10;;;;;;4970167;28;20034;-33
2022/07/07 04:06:07;;;;;;;3.05;2.50;;;14.70;93.20;;;;;;4970356;28;20081;-33
2022/07/07 04:08:33;;;;;;;2.63;2.40;;;14.70;93.50;;;;;;4970512;28;20388;-33
2022/07/07 04:10:59;;;;;;;3.20;2.60;;;14.70;93.80;;;;;;4970964;28;20121;-34
2022/07/07 04:13:24;;;;;;;3.70;2.63;;;14.60;93.80;;;;;;4970650;28;20104;-33
2022/07/07 04:15:50;;;;;;;4.35;3.03;;;14.70;93.60;;;;;;4971295;28;20050;-33
2022/07/07 04:18:16;;;;;;;2.97;2.58;;;14.60;93.60;;;;;;4970393;28;20091;-32
2022/07/07 04:20:42;;;;;;;4.43;2.50;;;14.60;93.70;;;;;;4971362;28;20157;-32
2022/07/07 04:23:07;;;;;;;3.20;2.60;;;14.60;94.00;;;;;;4969994;28;20045;-34
2022/07/07 04:25:33;;;;;;;4.85;2.65;;;14.50;93.90;;;;;;4970673;28;20031;-33
2022/07/07 04:27:59;;;;;;;3.50;2.80;;;14.50;93.60;;;;;;4970099;28;20106;-33
2022/07/07 04:30:24;;;;;;;3.53;2.40;;;14.50;93.60;;;;;;4969721;28;20047;-33
2022/07/07 04:32:50;;;;;;;4.20;2.35;;;14.50;93.70;;;;;;4970877;28;20113;-33
2022/07/07 04:35:15;;;;;;;3.03;2.72;;;14.50;93.70;;;;;;4970115;28;20488;-33
2022/07/07 04:37:41;;;;;;;2.45;2.25;;;14.50;93.40;;;;;;4970637;28;20027;-33
2022/07/07 04:40:07;;;;;;;2.88;2.63;;;14.50;93.80;;;;;;4968392;28;20054;-35
2022/07/07 04:42:33;;;;;;;5.63;2.83;;;14.50;93.50;;;;;;4970106;28;20042;-33
2022/07/07 04:44:59;;;;;;;3.25;2.40;;;14.50;93.00;;;;;;4966979;28;20039;-34
2022/07/07 04:47:24;;;;;;;3.67;2.60;;;14.50;93.50;;;;;;4970199;28;20056;-32
2022/07/07 04:49:53;;;;;;;4.32;2.60;;;14.50;93.60;;;;;;4970231;28;20038;-32
2022/07/07 04:52:19;;;;;;;6.88;2.50;;;14.50;93.30;;;;;;4975090;28;20058;-33
2022/07/07 04:54:45;;;;;;;4.95;2.67;;;14.50;93.60;;;;;;4970735;28;20031;-33
2022/07/07 04:57:10;;;;;;;4.32;2.72;;;14.50;94.90;;;;;;4973660;28;20031;-34
2022/07/07 04:59:36;;;;;;;3.53;2.22;;;14.50;94.00;;;;;;4970832;28;20500;-33
2022/07/07 05:02:02;;;;;;;3.10;2.50;;;14.50;94.00;;;;;;4974960;28;20035;-33
2022/07/07 05:04:27;;;;;;;2.92;2.65;;;14.60;93.50;;;;;;4968173;28;20030;-33
2022/07/07 05:06:53;;;;;;;3.05;2.45;;;14.60;93.80;;;;;;4975079;28;20109;-34
2022/07/07 05:09:18;;;;;;;3.08;2.50;;;14.70;93.90;;;;;;4974994;28;20034;-33
2022/07/07 05:11:45;;;;;;;4.93;2.58;;;14.70;93.30;;;;;;4972974;28;20034;-34
2022/07/07 05:14:10;;;;;;;2.42;2.22;;;14.70;92.90;;;;;;4971472;28;20030;-32
2022/07/07 05:16:36;;;;;;;2.67;2.47;;;14.80;93.10;;;;;;4971110;28;20065;-34
2022/07/07 05:19:02;;;;;;;4.72;2.25;;;14.80;92.80;;;;;;4974138;28;20033;-33
2022/07/07 05:21:27;;;;;;;2.83;2.40;;;14.80;92.70;;;;;;4969942;28;20688;-33
2022/07/07 05:23:53;;;;;;;3.00;2.17;;;14.80;92.90;;;;;;4973088;28;20090;-33
2022/07/07 05:26:19;;;;;;;2.63;2.30;;;14.80;93.40;;;;;;4969997;28;20038;-34
2022/07/07 05:28:44;;;;;;;4.60;2.40;;;14.80;93.00;;;;;;4971375;28;20033;-34
2022/07/07 05:31:13;;;;;;;5.25;2.67;;;14.80;93.50;;;;;;4969577;28;20459;-34
2022/07/07 05:33:39;;;;;;;2.65;2.10;;;14.90;93.40;;;;;;4969630;28;20035;-33
2022/07/07 05:36:05;;;;;;;3.20;2.10;;;14.80;93.00;;;;;;4969978;28;20054;-33
2022/07/07 05:38:32;;;;;;;2.85;2.10;;;14.80;93.50;;;;;;4974703;28;20101;-33
2022/07/07 05:40:58;;;;;;;2.15;2.05;;;14.80;93.50;;;;;;4971949;28;20033;-33
2022/07/07 05:43:23;;;;;;;2.88;2.30;;;14.90;93.70;;;;;;4975186;28;20038;-34
2022/07/07 05:45:49;;;;;;;2.42;2.22;;;14.90;93.60;;;;;;4973430;28;20434;-34
2022/07/07 05:48:15;;;;;;;2.63;2.25;;;15.00;94.00;;;;;;4975907;28;20551;-33
2022/07/07 05:50:40;;;;;;;3.55;2.50;;;15.00;94.20;;;;;;4972663;28;20035;-35
2022/07/07 05:53:06;;;;;;;2.30;2.00;;;15.10;94.50;;;;;;4973108;28;20065;-35
2022/07/07 05:55:32;;;;;;;2.65;2.40;;;15.20;94.20;;;;;;4973226;28;20138;-33
2022/07/07 05:57:58;;;;;;;3.45;3.05;;;15.20;94.10;;;;;;4972624;28;20093;-33
2022/07/07 06:00:24;;;;;;;6.55;2.30;;;15.20;93.40;;;;;;4972858;28;20472;-33
2022/07/07 06:02:50;;;;;;;3.28;2.13;;;15.30;93.70;;;;;;4972915;28;20053;-35
2022/07/07 06:05:16;;;;;;;2.88;2.35;;;15.20;94.40;;;;;;4968912;28;20050;-33
2022/07/07 06:07:42;;;;;;;2.40;2.17;;;15.30;93.90;;;;;;4973169;28;20399;-34
2022/07/07 06:10:10;;;;;;;4.53;2.45;;;15.30;94.30;;;;;;4973112;28;20048;-33
2022/07/07 06:12:36;;;;;;;4.32;2.40;;;15.30;94.20;;;;;;4972858;28;20443;-33
2022/07/07 06:15:02;;;;;;;2.42;2.22;;;15.40;94.30;;;;;;4972711;28;20046;-34
2022/07/07 06:17:27;;;;;;;2.40;2.20;;;15.30;93.50;;;;;;4972674;28;20549;-36
2022/07/07 06:19:53;;;;;;;4.07;2.45;;;15.30;94.20;;;;;;4972726;28;20027;-33
2022/07/07 06:22:19;;;;;;;2.70;2.50;;;15.30;94.00;;;;;;4972523;28;20073;-33
2022/07/07 06:24:44;;;;;;;2.40;2.20;;;15.30;93.10;;;;;;4972243;28;20042;-33
2022/07/07 06:27:10;;;;;;;4.07;2.47;;;15.30;94.00;;;;;;4972162;28;20022;-33
2022/07/07 06:29:35;;;;;;;3.33;2.20;;;15.50;94.00;;;;;;4972257;28;20037;-34
2022/07/07 06:32:01;;;;;;;5.30;2.20;;;15.50;94.80;;;;;;4971479;28;20030;-34
2022/07/07 06:34:27;;;;;;;2.60;2.40;;;15.60;94.90;;;;;;4972050;28;20027;-34
2022/07/07 06:36:52;;;;;;;2.13;1.90;;;15.60;95.60;;;;;;4971078;28;20034;-33
2022/07/07 06:39:18;;;;;;;2.55;2.10;;;15.70;94.20;;;;;;4972395;28;20027;-33
2022/07/07 06:41:44;;;;;;;2.28;2.08;;;15.70;94.30;;;;;;4971983;28;20384;-33
2022/07/07 06:44:10;;;;;;;5.55;4.15;;;15.70;94.20;;;;;;4972094;28;20018;-33
2022/07/07 06:46:36;;;;;;;3.15;2.00;;;15.90;93.90;;;;;;4971761;28;20022;-33
2022/07/07 06:49:02;;;;;;;3.15;2.20;;;16.00;93.50;;;;;;4968472;28;20037;-34
2022/07/07 06:51:28;;;;;;;2.17;1.98;;;16.10;94.20;;;;;;4971775;28;20369;-34
2022/07/07 06:53:54;;;;;;;2.17;1.98;;;16.20;90.80;;;;;;4971650;28;20027;-34
2022/07/07 06:56:19;;;;;;;2.50;2.30;;;16.30;91.70;;;;;;4971502;28;20023;-32
2022/07/07 06:58:45;;;;;;;6.03;2.53;;;16.30;90.40;;;;;;4971234;28;20030;-33
2022/07/07 07:01:11;;;;;;;2.58;2.20;;;16.30;90.20;;;;;;4971034;28;20034;-33
2022/07/07 07:03:36;;;;;;;9.65;2.25;;;16.30;91.90;;;;;;4971681;28;20054;-34
2022/07/07 07:06:02;;;;;;;2.97;2.17;;;16.30;92.20;;;;;;4970666;28;20476;-33
2022/07/07 07:08:28;;;;;;;5.38;2.00;;;16.40;92.50;;;;;;4971715;28;20054;-35
2022/07/07 07:10:53;;;;;;;2.05;1.83;;;16.50;91.50;;;;;;4971491;28;20066;-34
2022/07/07 07:13:19;;;;;;;4.55;2.00;;;16.70;90.50;;;;;;4971328;28;20494;-34
2022/07/07 07:15:45;;;;;;;2.00;1.80;;;16.70;89.50;;;;;;4971648;28;20051;-33
2022/07/07 07:18:11;;;;;;;3.80;2.08;;;16.90;87.90;;;;;;4971266;28;20432;-33
2022/07/07 07:20:37;;;;;;;3.65;2.20;;;17.00;88.40;;;;;;4971053;28;20034;-34
2022/07/07 07:23:03;;;;;;;3.30;1.85;;;17.40;89.50;;;;;;4970663;28;20039;-32
2022/07/07 07:25:28;;;;;;;3.67;1.90;;;17.70;88.70;;;;;;4971662;28;20037;-34
2022/07/07 07:27:54;;;;;;;2.65;2.20;;;18.00;83.40;;;;;;4957936;28;20125;-32
2022/07/07 07:30:20;;;;;;;2.42;1.90;;;18.10;76.00;;;;;;4971042;28;20042;-33
2022/07/07 07:32:45;;;;;;;4.22;2.55;;;18.10;73.10;;;;;;4969337;28;20921;-33
2022/07/07 07:35:11;;;;;;;1.98;1.77;;;18.00;77.60;;;;;;4970737;28;20039;-34
2022/07/07 07:37:39;;;;;;;2.30;2.17;;;18.00;79.50;;;;;;4973769;28;20039;-33
2022/07/07 07:40:08;;;;;;;3.47;1.75;;;18.00;74.90;;;;;;4970638;28;20045;-34
2022/07/07 07:42:34;;;;;;;2.88;1.83;;;17.90;77.00;;;;;;4970592;28;20035;-33
2022/07/07 07:45:11;;;;;;;1.90;1.80;;;17.90;79.30;;;;;;4970878;28;20034;-33
2022/07/07 07:47:44;;;;;;;2.58;1.70;;;17.90;76.50;;;;;;4967064;28;20044;-33
2022/07/07 07:50:12;;;;;;;3.80;1.75;;;18.10;76.20;;;;;;4969924;28;20053;-33
2022/07/07 07:52:39;;;;;;;1.70;1.60;;;18.30;75.50;;;;;;4971076;28;20404;-32
2022/07/07 07:55:10;;;;;;;2.33;1.80;;;18.30;73.10;;;;;;4971019;28;20313;-33
2022/07/07 07:57:36;;;;;;;2.13;1.80;;;18.30;75.00;;;;;;4965766;28;20369;-35
2022/07/07 08:00:04;;;;;;;1.50;1.40;;;18.30;74.70;;;;;;4970344;28;20054;-35
2022/07/07 08:02:30;;;;;;;1.70;1.60;;;18.40;75.70;;;;;;4970027;28;20547;-35
2022/07/07 08:04:55;;;;;;;2.58;1.88;;;18.30;72.20;;;;;;4969124;28;20106;-33
2022/07/07 08:07:21;;;;;;;2.45;1.70;;;18.40;71.10;;;;;;4970845;28;20475;-34
2022/07/07 08:09:47;;;;;;;2.15;1.98;;;18.30;75.60;;;;;;4966258;28;20030;-35
2022/07/07 08:12:12;;;;;;;2.45;1.75;;;18.30;74.10;;;;;;4970126;28;20421;-34
2022/07/07 08:14:38;;;;;;;2.28;1.60;;;18.40;75.90;;;;;;4969860;28;20035;-34
2022/07/07 08:17:04;;;;;;;2.05;1.70;;;18.30;77.70;;;;;;4969639;28;20018;-33
2022/07/07 08:19:30;;;;;;;1.58;1.48;;;18.20;76.10;;;;;;4969664;28;20023;-35
2022/07/07 08:21:55;;;;;;;1.67;1.58;;;18.00;73.20;;;;;;4970205;28;20037;-34
2022/07/07 08:24:21;;;;;;;2.40;1.52;;;17.90;71.70;;;;;;4969780;28;20026;-36
2022/07/07 08:26:47;;;;;;;1.70;1.33;;;18.00;75.10;;;;;;4969997;28;20035;-34
2022/07/07 08:29:13;;;;;;;2.05;1.60;;;18.00;78.80;;;;;;4969826;28;20035;-33
2022/07/07 08:31:39;;;;;;;5.30;1.67;;;18.10;74.10;;;;;;4968941;28;20043;-33
2022/07/07 08:34:05;;;;;;;1.60;1.40;;;18.40;75.70;;;;;;4969238;28;20408;-34
2022/07/07 08:36:30;;;;;;;1.77;1.63;;;18.30;71.60;;;;;;4970120;28;20038;-34
2022/07/07 08:38:57;;;;;;;1.58;1.40;;;18.30;70.70;;;;;;4970199;28;20023;-34
2022/07/07 08:41:23;;;;;;;1.80;1.40;;;18.20;72.00;;;;;;4970082;28;20042;-32
2022/07/07 08:43:49;;;;;;;1.60;1.50;;;18.40;73.60;;;;;;4969238;28;20030;-34
2022/07/07 08:46:15;;;;;;;3.83;1.50;;;18.40;77.40;;;;;;4969977;28;20046;-33
2022/07/07 08:48:41;;;;;;;3.72;1.60;;;18.60;70.70;;;;;;4968203;28;20053;-33
2022/07/07 08:51:08;;;;;;;2.63;2.05;;;18.60;67.20;;;;;;4967089;28;20039;-34
2022/07/07 08:53:36;;;;;;;4.50;1.45;;;18.50;69.70;;;;;;4969689;28;20046;-34
2022/07/07 08:56:07;;;;;;;2.67;1.52;;;18.50;66.60;;;;;;4952793;28;20035;-33
2022/07/07 08:58:37;;;;;;;1.45;1.35;;;18.40;67.50;;;;;;4965548;28;20543;-34
2022/07/07 09:01:04;;;;;;;2.05;1.38;;;18.50;72.50;;;;;;4968964;28;20039;-34
2022/07/07 09:03:30;;;;;;;2.25;1.33;;;18.70;72.20;;;;;;4974548;28;20031;-33
2022/07/07 09:05:57;;;;;;;2.47;1.60;;;18.70;68.90;;;;;;4972004;28;20026;-34
2022/07/07 09:08:24;;;;;;;1.40;1.25;;;18.70;71.00;;;;;;4969450;28;20018;-33
2022/07/07 09:10:50;;;;;;;2.20;1.27;;;18.30;76.20;;;;;;4971592;28;20026;-33
2022/07/07 09:13:27;;;;;;;1.65;1.20;;;18.00;75.80;;;;;;4970966;28;20274;-33
2022/07/07 09:15:54;;;;;;;1.30;1.17;;;17.60;80.90;;;;;;4971554;28;20050;-35
2022/07/07 09:18:33;;;;;;;1.40;1.30;;;17.40;86.50;;;;;;4973260;28;20357;-34
2022/07/07 09:20:59;;;;;;;2.88;1.50;;;17.40;90.90;;;;;;4975345;28;20487;-33
2022/07/07 09:23:26;;;;;;;1.65;1.55;;;17.40;86.70;;;;;;4971540;28;20042;-33
2022/07/07 09:25:52;;;;;;;2.00;1.50;;;17.40;87.80;;;;;;4975021;28;20037;-33
2022/07/07 09:28:17;;;;;;;2.40;1.50;;;17.60;90.10;;;;;;4973140;28;20031;-33
2022/07/07 09:30:48;;;;;;;2.75;2.05;;;17.80;90.00;;;;;;4971740;28;20047;-34
2022/07/07 09:33:21;;;;;;;2.28;1.67;;;17.80;89.60;;;;;;4973720;28;20097;-36
2022/07/07 09:38:33;;;;;;;4.10;1.63;;;17.90;86.30;;;;;;4973707;28;20041;-33
2022/07/07 09:41:12;;;;;;;2.13;1.80;;;18.00;90.70;;;;;;4974872;28;20058;-33
2022/07/07 09:43:45;;;;;;;2.17;1.45;;;17.90;87.80;;;;;;4972710;28;20067;-32
2022/07/07 09:46:14;;;;;;;2.60;1.98;;;17.80;87.50;;;;;;4975229;28;20030;-33
2022/07/07 09:48:46;;;;;;;2.50;2.10;;;17.70;85.70;;;;;;4973259;28;20019;-33
2022/07/07 09:51:16;;;;;;;2.90;1.63;;;17.90;89.10;;;;;;4970474;28;20046;-33
2022/07/07 09:54:01;;;;;;;2.40;1.80;;;18.10;87.40;;;;;;4973018;28;20077;-33
2022/07/07 09:56:35;;;;;;;3.05;1.58;;;18.40;82.60;;;;;;4973977;28;20027;-33
2022/07/07 09:59:03;;;;;;;1.83;1.40;;;18.60;86.60;;;;;;4972361;28;20455;-33
2022/07/07 10:01:33;;;;;;;2.22;1.83;;;18.60;84.30;;;;;;4973118;28;20034;-33
2022/07/07 10:04:02;;;;;;;1.52;1.42;;;18.60;85.70;;;;;;4972352;28;20042;-35
2022/07/07 10:06:30;;;;;;;1.80;1.70;;;18.40;76.00;;;;;;4972908;28;20085;-35
2022/07/07 10:09:11;;;;;;;2.00;1.90;;;18.40;79.50;;;;;;4972670;28;20027;-36
2022/07/07 10:11:38;;;;;;;2.08;1.50;;;18.40;77.90;;;;;;4972313;28;20043;-34
2022/07/07 10:14:17;;;;;;;3.05;1.70;;;18.40;83.50;;;;;;4971896;28;20126;-33
2022/07/07 10:16:47;;;;;;;3.28;1.70;;;18.50;80.30;;;;;;4955241;28;20046;-34
2022/07/07 10:19:15;;;;;;;2.33;1.50;;;18.30;77.60;;;;;;4965935;28;20126;-35
2022/07/07 10:21:43;;;;;;;3.20;1.50;;;18.30;77.80;;;;;;4973503;28;20081;-33
2022/07/07 10:24:09;;;;;;;;;;;18.40;79.30;;;;;;4972798;28;20031;-33
2022/07/07 10:26:56;;;;;;;2.50;1.80;;;18.40;79.50;;;;;;4971778;28;19965;-33
2022/07/07 10:29:38;;;;;;;2.22;1.80;;;18.40;80.20;;;;;;4968323;28;20647;-35
2022/07/07 10:32:05;;;;;;;1.75;1.65;;;18.40;79.20;;;;;;4971486;28;20069;-34
2022/07/07 10:34:33;;;;;;;2.58;2.00;;;18.50;82.50;;;;;;4972113;28;20038;-34
2022/07/07 10:37:00;;;;;;;2.63;2.17;;;18.60;81.40;;;;;;4972930;28;20112;-33
2022/07/07 10:39:28;;;;;;;2.03;1.88;;;18.60;79.30;;;;;;4972116;28;20041;-34
2022/07/07 10:42:02;;;;;;;2.60;1.92;;;18.60;79.40;;;;;;4970540;28;20059;-33
2022/07/07 10:44:28;;;;;;;2.42;2.20;;;18.50;79.10;;;;;;4970299;28;20039;-33
2022/07/07 10:47:18;;;;;;;3.80;2.17;;;18.40;79.60;;;;;;4968830;28;20361;-33
2022/07/07 10:49:54;;;;;;;4.18;2.22;;;18.50;79.20;;;;;;4959019;28;20055;-35
2022/07/07 10:52:40;;;;;;;4.05;2.35;;;18.40;79.80;;;;;;4971270;28;20027;-32
2022/07/07 10:55:07;;;;;;;2.90;2.20;;;18.30;81.10;;;;;;4969217;28;20023;-34
2022/07/07 10:57:41;;;;;;;2.08;1.98;;;18.20;81.10;;;;;;4970978;28;20507;-34
2022/07/07 11:00:19;;;;;;;3.40;2.20;;;18.20;84.30;;;;;;4964791;28;20033;-33
2022/07/07 11:02:49;;;;;;;5.50;2.20;;;18.30;84.40;;;;;;4971248;28;20182;-33
2022/07/07 11:05:14;;;;;;;2.25;2.05;;;18.30;86.60;;;;;;4971482;28;20031;-34
2022/07/07 11:07:56;;;;;;;4.03;2.47;;;18.40;84.60;;;;;;4972214;28;20042;-33
2022/07/07 11:10:22;;;;;;;6.53;2.40;;;18.30;85.00;;;;;;4971491;28;20161;-33
2022/07/07 11:12:53;;;;;;;3.25;2.05;;;18.30;86.30;;;;;;4972033;28;20030;-33
2022/07/07 11:15:21;;;;;;;2.72;2.08;;;18.30;87.40;;;;;;4971708;28;20575;-34
2022/07/07 11:18:11;;;;;;;2.70;2.22;;;18.30;87.60;;;;;;4972235;28;20026;-33
2022/07/07 11:21:00;;;;;;;3.85;2.17;;;18.40;89.00;;;;;;4975490;28;20132;-33
2022/07/07 11:23:40;;;;;;;2.30;2.10;;;18.30;87.40;;;;;;4972855;28;20042;-34
2022/07/07 11:26:06;;;;;;;2.78;2.13;;;18.40;90.00;;;;;;4971615;28;20054;-34
2022/07/07 11:28:31;;;;;;;2.22;2.03;;;18.50;88.20;;;;;;4969791;28;20413;-33
2022/07/07 11:31:08;;;;;;;3.30;2.03;;;18.60;90.90;;;;;;4970794;28;20050;-33
2022/07/07 11:33:34;;;;;;;5.40;2.50;;;18.60;84.50;;;;;;4971691;28;20038;-33
2022/07/07 11:36:09;;;;;;;2.15;1.95;;;18.80;89.70;;;;;;4970768;28;20166;-36
2022/07/07 11:38:34;;;;;;;2.50;2.30;;;18.90;90.20;;;;;;4971129;28;20031;-34
2022/07/07 11:41:00;;;;;;;2.95;2.38;;;18.90;86.00;;;;;;4971289;28;20026;-34
2022/07/07 11:43:26;;;;;;;2.35;2.08;;;19.00;86.40;;;;;;4975625;28;20030;-33
2022/07/07 11:45:51;;;;;;;2.25;2.05;;;18.80;86.50;;;;;;4973631;28;20368;-33
2022/07/07 11:48:17;;;;;;;2.92;1.90;;;18.80;83.50;;;;;;4974152;28;20109;-33
2022/07/07 11:50:45;;;;;;;3.03;2.00;;;18.90;86.70;;;;;;4967833;28;20085;-34
2022/07/07 11:53:11;;;;;;;2.10;2.00;;;19.10;90.10;;;;;;4972404;28;20101;-34
2022/07/07 11:55:37;;;;;;;2.25;1.75;;;19.20;85.00;;;;;;4972036;28;20019;-33
2022/07/07 11:58:05;;;;;;;4.40;2.25;;;19.10;79.00;;;;;;4970575;28;20042;-33
2022/07/07 12:00:32;;;;;;;2.50;2.30;;;19.20;83.30;;;;;;4973452;28;20085;-33
2022/07/07 12:03:01;;;;;;;2.63;2.42;;;19.50;81.30;;;;;;4970404;28;20508;-34
2022/07/07 12:05:38;;;;;;;3.28;2.20;;;19.50;79.10;;;;;;4973609;28;20186;-33
2022/07/07 12:08:09;;;;;;;2.17;2.05;;;19.50;81.80;;;;;;4969204;28;20027;-33
2022/07/07 12:10:37;;;;;;;2.45;2.25;;;19.60;84.00;;;;;;4973543;28;20038;-33
2022/07/07 12:13:04;;;;;;;;;;;19.60;84.10;;;;;;4970432;28;20105;-33
2022/07/07 12:15:40;;;;;;;2.85;2.63;;;19.40;80.20;;;;;;4972604;28;19957;-34
2022/07/07 12:18:07;;;;;;;3.95;2.53;;;19.30;87.20;;;;;;4967785;28;20027;-34
2022/07/07 12:20:34;;;;;;;3.50;2.50;;;19.30;86.60;;;;;;4971986;28;20037;-33
2022/07/07 12:23:02;;;;;;;3.38;2.30;;;19.20;85.30;;;;;;4970760;28;20031;-33
2022/07/07 12:25:29;;;;;;;2.85;2.65;;;19.00;85.30;;;;;;4971701;28;20030;-33
2022/07/07 12:27:56;;;;;;;3.05;2.80;;;18.70;92.80;;;;;;4970082;28;20031;-33
2022/07/07 12:30:24;;;;;;;3.10;2.83;;;18.10;97.50;;;;;;4970199;28;20034;-33
2022/07/07 12:32:50;;;;;;;4.28;2.95;;;17.90;99.90;;;;;;4970246;28;20019;-34
2022/07/07 12:35:39;;;;;;;6.20;3.20;;;17.70;99.90;;;;;;4970370;28;20109;-33
2022/07/07 12:38:08;;;;;;;3.40;3.10;;;17.60;99.90;;;;;;4969849;28;20415;-32
2022/07/07 12:40:36;;;;;;;5.50;3.05;;;17.40;99.90;;;;;;4974415;28;20030;-33
2022/07/07 12:43:10;;;;;;;4.55;3.05;;;17.20;99.90;;;;;;4968897;28;20030;-34
2022/07/07 12:45:38;;;;;;;4.30;3.13;;;17.10;99.90;;;;;;4976830;28;20122;-33
2022/07/07 12:48:14;;;;;;;4.90;3.30;;;16.90;99.90;;;;;;4968839;28;20121;-35
2022/07/07 12:50:39;;;;;;;4.30;3.13;;;16.90;99.90;;;;;;4960117;28;20039;-36
2022/07/07 12:53:07;;;;;;;4.97;3.42;;;16.90;99.90;;;;;;4973728;28;20049;-33